createdAt,value
2016-05-28T00:00:54.223Z,1008.14
2016-05-28T00:01:54.272Z,1008.11
2016-05-28T00:02:54.338Z,1008.12
2016-05-28T00:03:54.387Z,1008.13
2016-05-28T00:04:54.437Z,1008.12
2016-05-28T00:05:54.518Z,1008.11
2016-05-28T00:06:54.551Z,1008.1
2016-05-28T00:07:54.586Z,1008.09
2016-05-28T00:08:54.651Z,1008.05
2016-05-28T00:09:54.700Z,1008.11
2016-05-28T00:10:54.735Z,1008.1
2016-05-28T00:11:54.799Z,1008.07
2016-05-28T00:12:54.865Z,1008.05
2016-05-28T00:13:54.899Z,1008.07
2016-05-28T00:14:54.964Z,1008.1
2016-05-28T00:15:55.014Z,1008.09
2016-05-28T00:16:55.062Z,1008.08
2016-05-28T00:17:55.112Z,1008.07
2016-05-28T00:18:55.162Z,1008.07
2016-05-28T00:19:55.618Z,1008.06
2016-05-28T00:20:55.277Z,1008.03
2016-05-28T00:21:55.311Z,1008.03
2016-05-28T00:22:55.423Z,1008.01
2016-05-28T00:23:55.457Z,1008.01
2016-05-28T00:24:55.506Z,1007.97
2016-05-28T00:25:55.540Z,1007.97
2016-05-28T00:26:55.606Z,1007.97
2016-05-28T00:27:55.671Z,1007.98
2016-05-28T00:28:55.720Z,1007.96
2016-05-28T00:29:55.739Z,1007.99
2016-05-28T00:30:55.819Z,1007.97
2016-05-28T00:31:55.853Z,1007.92
2016-05-28T00:32:55.888Z,1007.95
2016-05-28T00:33:55.952Z,1007.93
2016-05-28T00:34:56.002Z,1007.92
2016-05-28T00:35:56.052Z,1007.92
2016-05-28T00:36:56.102Z,1007.92
2016-05-28T00:37:56.166Z,1007.93
2016-05-28T00:38:56.216Z,1007.95
2016-05-28T00:39:56.265Z,1007.95
2016-05-28T00:40:56.315Z,1007.95
2016-05-28T00:41:56.365Z,1007.97
2016-05-28T00:42:56.430Z,1007.96
2016-05-28T00:43:56.479Z,1007.98
2016-05-28T00:44:56.529Z,1007.99
2016-05-28T00:45:56.579Z,1008
2016-05-28T00:46:56.629Z,1007.97
2016-05-28T00:47:56.678Z,1008.03
2016-05-28T00:48:56.743Z,1007.99
2016-05-28T00:49:56.792Z,1008.01
2016-05-28T00:50:56.826Z,1007.98
2016-05-28T00:51:56.892Z,1008.01
2016-05-28T00:52:56.941Z,1007.95
2016-05-28T00:53:56.991Z,1007.96
2016-05-28T00:54:57.056Z,1007.94
2016-05-28T00:55:57.105Z,1007.95
2016-05-28T00:56:57.156Z,1007.96
2016-05-28T00:57:57.205Z,1007.95
2016-05-28T00:58:57.254Z,1007.93
2016-05-28T00:59:57.320Z,1007.97
2016-05-28T01:00:57.369Z,1007.94
2016-05-28T01:01:57.449Z,1007.92
2016-05-28T01:02:57.546Z,1007.96
2016-05-28T01:03:57.580Z,1007.96
2016-05-28T01:04:58.099Z,1007.92
2016-05-28T01:05:57.663Z,1007.91
2016-05-28T01:06:57.713Z,1007.96
2016-05-28T01:07:57.732Z,1007.98
2016-05-28T01:08:57.813Z,1008
2016-05-28T01:09:57.878Z,1007.97
2016-05-28T01:10:57.879Z,1007.96
2016-05-28T01:11:57.992Z,1008.01
2016-05-28T01:12:57.979Z,1007.96
2016-05-28T01:13:58.045Z,1008
2016-05-28T01:14:58.093Z,1008
2016-05-28T01:15:58.191Z,1007.98
2016-05-28T01:16:58.209Z,1007.98
2016-05-28T01:17:58.259Z,1007.95
2016-05-28T01:18:58.292Z,1007.94
2016-05-28T01:19:58.357Z,1007.93
2016-05-28T01:20:58.407Z,1007.95
2016-05-28T01:21:58.456Z,1007.95
2016-05-28T01:22:58.522Z,1007.96
2016-05-28T01:23:58.572Z,1007.99
2016-05-28T01:24:58.620Z,1007.96
2016-05-28T01:25:58.670Z,1007.96
2016-05-28T01:26:58.719Z,1007.92
2016-05-28T01:27:58.770Z,1007.94
2016-05-28T01:28:58.836Z,1007.96
2016-05-28T01:29:58.884Z,1007.97
2016-05-28T01:30:58.934Z,1007.94
2016-05-28T01:31:58.983Z,1007.95
2016-05-28T01:32:59.033Z,1007.95
2016-05-28T01:33:59.083Z,1007.99
2016-05-28T01:34:59.147Z,1007.94
2016-05-28T01:35:59.197Z,1007.94
2016-05-28T01:36:59.247Z,1007.96
2016-05-28T01:37:59.374Z,1007.98
2016-05-28T01:38:59.362Z,1007.97
2016-05-28T01:39:59.395Z,1007.95
2016-05-28T01:40:59.461Z,1007.93
2016-05-28T01:41:59.573Z,1007.93
2016-05-28T01:42:59.576Z,1007.95
2016-05-28T01:43:59.626Z,1007.93
2016-05-28T01:44:59.690Z,1007.94
2016-05-28T01:45:59.724Z,1007.91
2016-05-28T01:46:59.774Z,1007.93
2016-05-28T01:47:59.823Z,1007.97
2016-05-28T01:48:59.889Z,1007.97
2016-05-28T01:49:59.923Z,1007.96
2016-05-28T01:50:59.972Z,1007.97
2016-05-28T01:52:00.053Z,1007.96
2016-05-28T01:53:00.086Z,1007.97
2016-05-28T01:54:00.136Z,1007.96
2016-05-28T01:55:00.186Z,1007.98
2016-05-28T01:56:00.236Z,1007.97
2016-05-28T01:57:00.286Z,1007.94
2016-05-28T01:58:00.350Z,1007.94
2016-05-28T01:59:00.400Z,1007.94
2016-05-28T02:00:00.450Z,1007.93
2016-05-28T02:01:00.499Z,1007.93
2016-05-28T02:02:00.564Z,1007.91
2016-05-28T02:03:00.597Z,1007.9
2016-05-28T02:04:00.663Z,1007.92
2016-05-28T02:05:00.713Z,1007.88
2016-05-28T02:06:00.763Z,1007.9
2016-05-28T02:07:00.813Z,1007.94
2016-05-28T02:08:00.861Z,1007.96
2016-05-28T02:09:00.927Z,1007.94
2016-05-28T02:10:00.977Z,1007.91
2016-05-28T02:11:01.027Z,1007.91
2016-05-28T02:12:01.076Z,1007.93
2016-05-28T02:13:01.140Z,1007.94
2016-05-28T02:14:01.174Z,1007.95
2016-05-28T02:15:01.224Z,1007.96
2016-05-28T02:16:01.290Z,1007.99
2016-05-28T02:17:01.339Z,1007.99
2016-05-28T02:18:01.388Z,1007.97
2016-05-28T02:19:01.437Z,1008.02
2016-05-28T02:20:01.504Z,1008.02
2016-05-28T02:21:01.584Z,1008.01
2016-05-28T02:22:01.633Z,1007.99
2016-05-28T02:23:01.668Z,1008
2016-05-28T02:24:01.733Z,1008
2016-05-28T02:25:01.751Z,1008.03
2016-05-28T02:26:01.832Z,1008.02
2016-05-28T02:27:01.866Z,1008
2016-05-28T02:28:01.915Z,1008.04
2016-05-28T02:29:01.965Z,1008.02
2016-05-28T02:30:02.014Z,1007.99
2016-05-28T02:31:02.064Z,1008.01
2016-05-28T02:32:02.130Z,1008.02
2016-05-28T02:33:02.163Z,1008
2016-05-28T02:34:02.228Z,1008.02
2016-05-28T02:35:02.293Z,1007.99
2016-05-28T02:36:02.327Z,1008.01
2016-05-28T02:37:02.378Z,1008.04
2016-05-28T02:38:02.427Z,1008.01
2016-05-28T02:39:02.492Z,1008
2016-05-28T02:40:02.541Z,1008
2016-05-28T02:41:02.591Z,1008.02
2016-05-28T02:42:02.640Z,1008.04
2016-05-28T02:43:02.706Z,1008.03
2016-05-28T02:44:02.740Z,1008.02
2016-05-28T02:45:02.804Z,1008.03
2016-05-28T02:46:02.855Z,1008.05
2016-05-28T02:47:02.904Z,1008.05
2016-05-28T02:48:02.954Z,1008.1
2016-05-28T02:49:03.018Z,1008.07
2016-05-28T02:50:03.068Z,1008.07
2016-05-28T02:51:03.118Z,1008.04
2016-05-28T02:52:03.168Z,1008.05
2016-05-28T02:53:03.233Z,1008.05
2016-05-28T02:54:03.281Z,1008.06
2016-05-28T02:55:03.316Z,1008.07
2016-05-28T02:56:03.381Z,1008.06
2016-05-28T02:57:03.431Z,1008.06
2016-05-28T02:58:03.495Z,1008.07
2016-05-28T02:59:03.545Z,1008.06
2016-05-28T03:00:03.595Z,1008.09
2016-05-28T03:01:03.644Z,1008.07
2016-05-28T03:02:03.711Z,1008.08
2016-05-28T03:03:03.759Z,1008.07
2016-05-28T03:04:03.809Z,1008.09
2016-05-28T03:05:03.843Z,1008.08
2016-05-28T03:06:03.892Z,1008.06
2016-05-28T03:07:03.957Z,1008.05
2016-05-28T03:08:04.008Z,1008.08
2016-05-28T03:09:04.057Z,1008.06
2016-05-28T03:10:04.107Z,1008.08
2016-05-28T03:11:04.156Z,1008.1
2016-05-28T03:12:04.222Z,1008.09
2016-05-28T03:13:04.255Z,1008.11
2016-05-28T03:14:04.321Z,1008.11
2016-05-28T03:15:04.370Z,1008.06
2016-05-28T03:16:04.419Z,1008.07
2016-05-28T03:17:04.468Z,1008.11
2016-05-28T03:18:04.519Z,1008.09
2016-05-28T03:19:04.584Z,1008.07
2016-05-28T03:20:04.634Z,1008.09
2016-05-28T03:21:04.682Z,1008.06
2016-05-28T03:22:04.748Z,1008.09
2016-05-28T03:23:04.782Z,1008.11
2016-05-28T03:24:04.832Z,1008.1
2016-05-28T03:25:04.897Z,1008.1
2016-05-28T03:26:04.946Z,1008.12
2016-05-28T03:27:04.995Z,1008.09
2016-05-28T03:28:05.045Z,1008.1
2016-05-28T03:29:05.111Z,1008.09
2016-05-28T03:30:05.161Z,1008.09
2016-05-28T03:31:05.209Z,1008.1
2016-05-28T03:32:05.259Z,1008.07
2016-05-28T03:33:05.309Z,1008.06
2016-05-28T03:34:05.358Z,1008.04
2016-05-28T03:35:05.408Z,1008.03
2016-05-28T03:36:05.489Z,1008.01
2016-05-28T03:37:05.507Z,1008.05
2016-05-28T03:38:05.572Z,1008.04
2016-05-28T03:39:05.621Z,1008.05
2016-05-28T03:40:05.687Z,1008.06
2016-05-28T03:41:05.737Z,1008.04
2016-05-28T03:42:05.786Z,1008.05
2016-05-28T03:43:05.835Z,1008.03
2016-05-28T03:44:05.886Z,1008.02
2016-05-28T03:45:05.935Z,1008.01
2016-05-28T03:46:05.985Z,1007.99
2016-05-28T03:47:06.034Z,1007.97
2016-05-28T03:48:06.084Z,1007.99
2016-05-28T03:49:06.149Z,1007.95
2016-05-28T03:50:06.199Z,1007.94
2016-05-28T03:51:06.248Z,1007.9
2016-05-28T03:52:06.298Z,1007.89
2016-05-28T03:53:06.363Z,1007.85
2016-05-28T03:54:06.397Z,1007.9
2016-05-28T03:55:06.462Z,1007.84
2016-05-28T03:56:06.511Z,1007.85
2016-05-28T03:57:06.576Z,1007.84
2016-05-28T03:58:06.626Z,1007.82
2016-05-28T03:59:06.675Z,1007.82
2016-05-28T04:00:06.725Z,1007.8
2016-05-28T04:01:06.775Z,1007.83
2016-05-28T04:02:06.840Z,1007.87
2016-05-28T04:03:06.875Z,1007.84
2016-05-28T04:04:06.923Z,1007.84
2016-05-28T04:05:06.989Z,1007.8
2016-05-28T04:06:07.039Z,1007.84
2016-05-28T04:07:07.103Z,1007.82
2016-05-28T04:08:07.137Z,1007.81
2016-05-28T04:09:07.187Z,1007.85
2016-05-28T04:10:07.252Z,1007.84
2016-05-28T04:11:07.302Z,1007.8
2016-05-28T04:12:07.352Z,1007.81
2016-05-28T04:13:07.401Z,1007.77
2016-05-28T04:14:07.450Z,1007.8
2016-05-28T04:15:07.500Z,1007.77
2016-05-28T04:16:07.566Z,1007.81
2016-05-28T04:17:07.615Z,1007.8
2016-05-28T04:18:07.665Z,1007.78
2016-05-28T04:19:07.714Z,1007.79
2016-05-28T04:20:07.763Z,1007.79
2016-05-28T04:21:07.813Z,1007.79
2016-05-28T04:22:07.862Z,1007.8
2016-05-28T04:23:07.928Z,1007.76
2016-05-28T04:24:07.977Z,1007.79
2016-05-28T04:25:08.027Z,1007.83
2016-05-28T04:26:08.076Z,1007.81
2016-05-28T04:27:08.142Z,1007.81
2016-05-28T04:28:08.191Z,1007.77
2016-05-28T04:29:08.240Z,1007.77
2016-05-28T04:30:08.290Z,1007.78
2016-05-28T04:31:08.339Z,1007.77
2016-05-28T04:32:08.389Z,1007.77
2016-05-28T04:33:08.455Z,1007.78
2016-05-28T04:34:08.503Z,1007.77
2016-05-28T04:35:08.553Z,1007.76
2016-05-28T04:36:08.603Z,1007.77
2016-05-28T04:37:08.653Z,1007.76
2016-05-28T04:38:08.703Z,1007.75
2016-05-28T04:39:08.767Z,1007.72
2016-05-28T04:40:08.817Z,1007.77
2016-05-28T04:41:08.867Z,1007.72
2016-05-28T04:42:08.916Z,1007.73
2016-05-28T04:43:08.966Z,1007.76
2016-05-28T04:44:09.016Z,1007.71
2016-05-28T04:45:09.066Z,1007.78
2016-05-28T04:46:09.130Z,1007.76
2016-05-28T04:47:09.180Z,1007.74
2016-05-28T04:48:09.230Z,1007.74
2016-05-28T04:49:09.294Z,1007.74
2016-05-28T04:50:09.469Z,1007.74
2016-05-28T04:51:09.394Z,1007.77
2016-05-28T04:52:09.443Z,1007.77
2016-05-28T04:53:09.493Z,1007.75
2016-05-28T04:54:09.543Z,1007.75
2016-05-28T04:55:09.654Z,1007.78
2016-05-28T04:56:09.642Z,1007.76
2016-05-28T04:57:09.706Z,1007.74
2016-05-28T04:58:09.756Z,1007.75
2016-05-28T04:59:09.806Z,1007.75
2016-05-28T05:00:09.856Z,1007.76
2016-05-28T05:01:09.905Z,1007.72
2016-05-28T05:02:09.970Z,1007.69
2016-05-28T05:03:10.020Z,1007.7
2016-05-28T05:04:10.069Z,1007.71
2016-05-28T05:05:10.119Z,1007.73
2016-05-28T05:06:10.168Z,1007.75
2016-05-28T05:07:10.217Z,1007.74
2016-05-28T05:08:10.293Z,1007.75
2016-05-28T05:09:10.367Z,1007.75
2016-05-28T05:10:10.441Z,1007.74
2016-05-28T05:11:10.515Z,1007.79
2016-05-28T05:12:10.604Z,1007.78
2016-05-28T05:13:10.657Z,1007.78
2016-05-28T05:14:10.732Z,1007.82
2016-05-28T05:15:10.790Z,1007.79
2016-05-28T05:16:10.848Z,1007.82
2016-05-28T05:17:10.906Z,1007.78
2016-05-28T05:18:10.979Z,1007.82
2016-05-28T05:19:11.015Z,1007.8
2016-05-28T05:20:11.083Z,1007.81
2016-05-28T05:21:11.121Z,1007.79
2016-05-28T05:22:11.189Z,1007.82
2016-05-28T05:23:11.240Z,1007.79
2016-05-28T05:24:11.292Z,1007.76
2016-05-28T05:25:11.342Z,1007.8
2016-05-28T05:26:11.409Z,1007.79
2016-05-28T05:27:11.459Z,1007.77
2016-05-28T05:28:11.509Z,1007.77
2016-05-28T05:29:11.559Z,1007.77
2016-05-28T05:30:11.609Z,1007.79
2016-05-28T05:31:11.676Z,1007.75
2016-05-28T05:32:11.710Z,1007.75
2016-05-28T05:33:11.775Z,1007.73
2016-05-28T05:34:11.824Z,1007.7
2016-05-28T05:35:11.873Z,1007.73
2016-05-28T05:36:11.924Z,1007.69
2016-05-28T05:37:11.988Z,1007.73
2016-05-28T05:38:12.038Z,1007.75
2016-05-28T05:39:12.087Z,1007.65
2016-05-28T05:40:12.137Z,1007.7
2016-05-28T05:41:12.187Z,1007.72
2016-05-28T05:42:12.252Z,1007.73
2016-05-28T05:43:12.301Z,1007.76
2016-05-28T05:44:12.351Z,1007.74
2016-05-28T05:45:12.401Z,1007.74
2016-05-28T05:46:12.451Z,1007.73
2016-05-28T05:47:12.500Z,1007.72
2016-05-28T05:48:12.549Z,1007.76
2016-05-28T05:49:12.600Z,1007.79
2016-05-28T05:50:12.648Z,1007.72
2016-05-28T05:51:12.714Z,1007.79
2016-05-28T05:52:12.764Z,1007.76
2016-05-28T05:53:12.813Z,1007.75
2016-05-28T05:54:12.863Z,1007.76
2016-05-28T05:55:12.927Z,1007.75
2016-05-28T05:56:12.978Z,1007.79
2016-05-28T05:57:13.027Z,1007.72
2016-05-28T05:58:13.092Z,1007.77
2016-05-28T05:59:13.127Z,1007.72
2016-05-28T06:00:13.191Z,1007.75
2016-05-28T06:01:13.241Z,1007.77
2016-05-28T06:02:13.290Z,1007.75
2016-05-28T06:03:13.341Z,1007.78
2016-05-28T06:04:13.390Z,1007.78
2016-05-28T06:05:13.439Z,1007.77
2016-05-28T06:06:13.488Z,1007.76
2016-05-28T06:07:13.553Z,1007.79
2016-05-28T06:08:13.603Z,1007.79
2016-05-28T06:09:13.654Z,1007.79
2016-05-28T06:10:13.702Z,1007.81
2016-05-28T06:11:13.767Z,1007.78
2016-05-28T06:12:13.817Z,1007.8
2016-05-28T06:13:13.867Z,1007.82
2016-05-28T06:14:13.917Z,1007.79
2016-05-28T06:15:13.965Z,1007.81
2016-05-28T06:16:14.015Z,1007.82
2016-05-28T06:17:14.065Z,1007.77
2016-05-28T06:18:14.115Z,1007.8
2016-05-28T06:19:14.180Z,1007.78
2016-05-28T06:20:14.229Z,1007.79
2016-05-28T06:21:14.279Z,1007.77
2016-05-28T06:22:14.344Z,1007.81
2016-05-28T06:23:14.394Z,1007.77
2016-05-28T06:24:14.444Z,1007.8
2016-05-28T06:25:14.492Z,1007.79
2016-05-28T06:26:14.542Z,1007.79
2016-05-28T06:27:14.592Z,1007.79
2016-05-28T06:28:14.641Z,1007.78
2016-05-28T06:29:14.691Z,1007.81
2016-05-28T06:30:14.756Z,1007.78
2016-05-28T06:31:14.805Z,1007.8
2016-05-28T06:32:14.855Z,1007.78
2016-05-28T06:33:14.905Z,1007.77
2016-05-28T06:34:14.955Z,1007.81
2016-05-28T06:35:15.035Z,1007.84
2016-05-28T06:36:15.069Z,1007.81
2016-05-28T06:37:15.118Z,1007.83
2016-05-28T06:38:15.168Z,1007.86
2016-05-28T06:39:15.218Z,1007.85
2016-05-28T06:40:15.268Z,1007.86
2016-05-28T06:41:15.332Z,1007.84
2016-05-28T06:42:15.382Z,1007.79
2016-05-28T06:43:15.432Z,1007.74
2016-05-28T06:44:15.481Z,1007.78
2016-05-28T06:45:15.531Z,1007.76
2016-05-28T06:46:15.595Z,1007.74
2016-05-28T06:47:15.646Z,1007.68
2016-05-28T06:48:15.695Z,1007.6
2016-05-28T06:49:15.745Z,1007.59
2016-05-28T06:50:15.809Z,1007.57
2016-05-28T06:51:15.859Z,1007.61
2016-05-28T06:52:15.909Z,1007.58
2016-05-28T06:53:15.958Z,1007.54
2016-05-28T06:54:16.009Z,1007.54
2016-05-28T06:55:16.073Z,1007.53
2016-05-28T06:56:16.107Z,1007.49
2016-05-28T06:57:16.173Z,1007.52
2016-05-28T06:58:16.223Z,1007.51
2016-05-28T06:59:16.272Z,1007.51
2016-05-28T07:00:16.321Z,1007.5
2016-05-28T07:01:16.371Z,1007.5
2016-05-28T07:02:16.436Z,1007.52
2016-05-28T07:03:16.501Z,1007.52
2016-05-28T07:04:16.535Z,1007.53
2016-05-28T07:05:16.585Z,1007.51
2016-05-28T07:06:16.634Z,1007.52
2016-05-28T07:07:16.684Z,1007.52
2016-05-28T07:08:16.749Z,1007.49
2016-05-28T07:09:16.799Z,1007.48
2016-05-28T07:10:16.848Z,1007.47
2016-05-28T07:11:16.898Z,1007.45
2016-05-28T07:12:16.947Z,1007.48
2016-05-28T07:13:16.996Z,1007.46
2016-05-28T07:14:17.062Z,1007.43
2016-05-28T07:15:17.111Z,1007.41
2016-05-28T07:16:17.162Z,1007.43
2016-05-28T07:17:17.211Z,1007.48
2016-05-28T07:18:17.260Z,1007.48
2016-05-28T07:19:17.325Z,1007.49
2016-05-28T07:20:17.484Z,1007.48
2016-05-28T07:21:17.424Z,1007.5
2016-05-28T07:22:17.475Z,1007.48
2016-05-28T07:23:17.523Z,1007.51
2016-05-28T07:24:17.573Z,1007.49
2016-05-28T07:25:17.639Z,1007.51
2016-05-28T07:26:17.688Z,1007.52
2016-05-28T07:27:17.738Z,1007.51
2016-05-28T07:28:17.786Z,1007.48
2016-05-28T07:29:17.837Z,1007.48
2016-05-28T07:30:17.902Z,1007.45
2016-05-28T07:31:17.951Z,1007.45
2016-05-28T07:32:18.002Z,1007.49
2016-05-28T07:33:18.051Z,1007.41
2016-05-28T07:34:18.100Z,1007.45
2016-05-28T07:35:18.243Z,1007.46
2016-05-28T07:36:18.199Z,1007.44
2016-05-28T07:37:18.265Z,1007.45
2016-05-28T07:38:18.313Z,1007.43
2016-05-28T07:39:18.363Z,1007.45
2016-05-28T07:40:18.413Z,1007.46
2016-05-28T07:41:18.479Z,1007.44
2016-05-28T07:42:18.528Z,1007.45
2016-05-28T07:43:18.577Z,1007.44
2016-05-28T07:44:18.627Z,1007.45
2016-05-28T07:45:18.676Z,1007.41
2016-05-28T07:46:18.726Z,1007.42
2016-05-28T07:47:18.791Z,1007.41
2016-05-28T07:48:18.840Z,1007.43
2016-05-28T07:49:18.890Z,1007.43
2016-05-28T07:50:18.940Z,1007.42
2016-05-28T07:51:19.005Z,1007.39
2016-05-28T07:52:19.039Z,1007.42
2016-05-28T07:53:19.104Z,1007.39
2016-05-28T07:54:19.153Z,1007.39
2016-05-28T07:55:19.203Z,1007.38
2016-05-28T07:56:19.253Z,1007.35
2016-05-28T07:57:19.303Z,1007.35
2016-05-28T07:58:19.353Z,1007.32
2016-05-28T07:59:19.402Z,1007.38
2016-05-28T08:00:19.466Z,1007.35
2016-05-28T08:01:19.517Z,1007.32
2016-05-28T08:02:19.566Z,1007.35
2016-05-28T08:03:19.631Z,1007.33
2016-05-28T08:04:19.680Z,1007.36
2016-05-28T08:05:20.324Z,1007.33
2016-05-28T08:06:19.780Z,1007.29
2016-05-28T08:07:19.829Z,1007.33
2016-05-28T08:08:19.894Z,1007.31
2016-05-28T08:09:19.929Z,1007.3
2016-05-28T08:10:19.994Z,1007.34
2016-05-28T08:11:20.043Z,1007.32
2016-05-28T08:12:20.093Z,1007.35
2016-05-28T08:13:20.143Z,1007.32
2016-05-28T08:14:20.207Z,1007.33
2016-05-28T08:15:20.257Z,1007.33
2016-05-28T08:16:20.307Z,1007.29
2016-05-28T08:17:20.356Z,1007.31
2016-05-28T08:18:20.406Z,1007.3
2016-05-28T08:19:20.471Z,1007.27
2016-05-28T08:20:20.520Z,1007.28
2016-05-28T08:21:20.571Z,1007.25
2016-05-28T08:22:20.620Z,1007.24
2016-05-28T08:23:22.075Z,1007.25
2016-05-28T08:24:20.719Z,1007.22
2016-05-28T08:25:20.784Z,1007.22
2016-05-28T08:26:20.833Z,1007.21
2016-05-28T08:27:20.884Z,1007.2
2016-05-28T08:28:20.933Z,1007.16
2016-05-28T08:29:20.998Z,1007.2
2016-05-28T08:30:21.048Z,1007.17
2016-05-28T08:31:21.113Z,1007.18
2016-05-28T08:32:21.147Z,1007.19
2016-05-28T08:33:22.540Z,1007.18
2016-05-28T08:34:21.261Z,1007.19
2016-05-28T08:35:21.296Z,1007.2
2016-05-28T08:36:21.360Z,1007.15
2016-05-28T08:37:21.410Z,1007.15
2016-05-28T08:38:21.475Z,1007.13
2016-05-28T08:39:21.510Z,1007.13
2016-05-28T08:40:21.560Z,1007.12
2016-05-28T08:41:21.624Z,1007.1
2016-05-28T08:42:21.674Z,1007.13
2016-05-28T08:43:24.145Z,1007.09
2016-05-28T08:44:21.773Z,1007.08
2016-05-28T08:45:21.823Z,1007.09
2016-05-28T08:46:21.888Z,1007.05
2016-05-28T08:47:21.921Z,1007.08
2016-05-28T08:48:22.081Z,1007.08
2016-05-28T08:49:22.037Z,1007.04
2016-05-28T08:50:22.446Z,1007.03
2016-05-28T08:51:22.151Z,1007.02
2016-05-28T08:52:22.200Z,1007.05
2016-05-28T08:53:22.251Z,1007.02
2016-05-28T08:54:22.300Z,1007.03
2016-05-28T08:55:22.350Z,1007.03
2016-05-28T08:56:22.399Z,1006.99
2016-05-28T08:57:22.448Z,1006.98
2016-05-28T08:58:22.513Z,1006.97
2016-05-28T08:59:22.563Z,1006.99
2016-05-28T09:00:22.613Z,1006.99
2016-05-28T09:01:22.678Z,1007.02
2016-05-28T09:02:22.711Z,1006.98
2016-05-28T09:03:22.778Z,1007.06
2016-05-28T09:04:23.311Z,1007.01
2016-05-28T09:05:22.877Z,1007.04
2016-05-28T09:06:22.925Z,1007.03
2016-05-28T09:07:22.991Z,1007.03
2016-05-28T09:08:23.040Z,1007.05
2016-05-28T09:09:23.090Z,1007.05
2016-05-28T09:10:23.155Z,1007.05
2016-05-28T09:11:23.205Z,1007.04
2016-05-28T09:12:23.254Z,1007.06
2016-05-28T09:13:23.304Z,1007.02
2016-05-28T09:14:23.354Z,1007.03
2016-05-28T09:15:23.404Z,1007.03
2016-05-28T09:16:23.468Z,1007.02
2016-05-28T09:17:23.518Z,1007.05
2016-05-28T09:18:23.583Z,1007.06
2016-05-28T09:19:23.726Z,1007.06
2016-05-28T09:20:24.057Z,1007.05
2016-05-28T09:21:23.715Z,1007.02
2016-05-28T09:22:23.782Z,1007.04
2016-05-28T09:23:23.831Z,1006.99
2016-05-28T09:24:23.881Z,1006.98
2016-05-28T09:25:23.931Z,1007.03
2016-05-28T09:26:23.980Z,1006.96
2016-05-28T09:27:24.045Z,1006.99
2016-05-28T09:28:24.094Z,1006.96
2016-05-28T09:29:24.144Z,1006.91
2016-05-28T09:30:24.194Z,1006.9
2016-05-28T09:31:24.259Z,1006.87
2016-05-28T09:32:24.309Z,1006.84
2016-05-28T09:33:24.357Z,1006.88
2016-05-28T09:34:24.407Z,1006.96
2016-05-28T09:35:24.738Z,1006.92
2016-05-28T09:36:24.522Z,1006.91
2016-05-28T09:37:24.555Z,1006.92
2016-05-28T09:38:24.621Z,1006.87
2016-05-28T09:39:24.671Z,1006.87
2016-05-28T09:40:24.720Z,1006.92
2016-05-28T09:41:24.927Z,1006.94
2016-05-28T09:42:24.835Z,1006.92
2016-05-28T09:43:24.885Z,1006.9
2016-05-28T09:44:24.934Z,1006.88
2016-05-28T09:45:24.984Z,1006.87
2016-05-28T09:46:25.049Z,1006.86
2016-05-28T09:47:25.099Z,1006.84
2016-05-28T09:48:25.149Z,1006.87
2016-05-28T09:49:25.323Z,1006.76
2016-05-28T09:50:25.262Z,1006.79
2016-05-28T09:51:25.296Z,1006.77
2016-05-28T09:52:25.362Z,1006.77
2016-05-28T09:53:25.411Z,1006.78
2016-05-28T09:54:25.461Z,1006.78
2016-05-28T09:55:25.511Z,1006.71
2016-05-28T09:56:25.592Z,1006.71
2016-05-28T09:57:25.625Z,1006.74
2016-05-28T09:58:25.675Z,1006.75
2016-05-28T09:59:25.725Z,1006.72
2016-05-28T10:00:25.806Z,1006.67
2016-05-28T10:01:25.823Z,1006.71
2016-05-28T10:02:25.888Z,1006.72
2016-05-28T10:03:25.938Z,1006.69
2016-05-28T10:04:25.989Z,1006.66
2016-05-28T10:05:26.053Z,1006.66
2016-05-28T10:06:26.102Z,1006.71
2016-05-28T10:07:26.872Z,1006.75
2016-05-28T10:08:26.202Z,1006.67
2016-05-28T10:09:26.252Z,1006.64
2016-05-28T10:10:26.317Z,1006.66
2016-05-28T10:11:26.367Z,1006.61
2016-05-28T10:12:26.416Z,1006.61
2016-05-28T10:13:26.465Z,1006.66
2016-05-28T10:14:26.515Z,1006.59
2016-05-28T10:15:26.565Z,1006.62
2016-05-28T10:16:26.630Z,1006.57
2016-05-28T10:17:27.805Z,1006.6
2016-05-28T10:18:26.729Z,1006.62
2016-05-28T10:19:26.779Z,1006.55
2016-05-28T10:20:26.843Z,1006.61
2016-05-28T10:21:26.893Z,1006.58
2016-05-28T10:22:29.365Z,1006.59
2016-05-28T10:23:26.993Z,1006.59
2016-05-28T10:24:27.042Z,1006.58
2016-05-28T10:25:27.091Z,1006.6
2016-05-28T10:26:27.157Z,1006.57
2016-05-28T10:27:27.206Z,1006.6
2016-05-28T10:28:27.256Z,1006.57
2016-05-28T10:29:27.305Z,1006.58
2016-05-28T10:30:27.370Z,1006.57
2016-05-28T10:31:27.420Z,1006.57
2016-05-28T10:32:27.470Z,1006.61
2016-05-28T10:33:27.550Z,1006.59
2016-05-28T10:34:27.584Z,1006.6
2016-05-28T10:35:27.619Z,1006.6
2016-05-28T10:36:27.683Z,1006.58
2016-05-28T10:37:27.733Z,1006.59
2016-05-28T10:38:27.797Z,1006.56
2016-05-28T10:39:27.832Z,1006.54
2016-05-28T10:40:27.897Z,1006.49
2016-05-28T10:41:27.947Z,1006.57
2016-05-28T10:42:27.996Z,1006.51
2016-05-28T10:43:28.046Z,1006.55
2016-05-28T10:44:28.111Z,1006.49
2016-05-28T10:45:28.160Z,1006.53
2016-05-28T10:46:28.210Z,1006.53
2016-05-28T10:47:28.260Z,1006.5
2016-05-28T10:48:28.324Z,1006.51
2016-05-28T10:49:28.374Z,1006.47
2016-05-28T10:50:28.424Z,1006.51
2016-05-28T10:51:28.474Z,1006.48
2016-05-28T10:52:28.523Z,1006.47
2016-05-28T10:53:28.573Z,1006.44
2016-05-28T10:54:28.623Z,1006.44
2016-05-28T10:55:29.282Z,1006.44
2016-05-28T10:56:28.737Z,1006.47
2016-05-28T10:57:28.787Z,1006.47
2016-05-28T10:58:28.837Z,1006.48
2016-05-28T10:59:28.901Z,1006.5
2016-05-28T11:00:29.904Z,1006.52
2016-05-28T11:01:29.000Z,1006.49
2016-05-28T11:02:29.051Z,1006.49
2016-05-28T11:03:29.115Z,1006.49
2016-05-28T11:04:29.165Z,1006.49
2016-05-28T11:05:32.433Z,1006.46
2016-05-28T11:06:29.264Z,1006.46
2016-05-28T11:07:29.314Z,1006.45
2016-05-28T11:08:29.363Z,1006.46
2016-05-28T11:09:29.428Z,1006.4
2016-05-28T11:10:29.478Z,1006.48
2016-05-28T11:11:29.527Z,1006.47
2016-05-28T11:12:29.593Z,1006.45
2016-05-28T11:13:29.642Z,1006.49
2016-05-28T11:14:29.692Z,1006.46
2016-05-28T11:15:29.741Z,1006.45
2016-05-28T11:16:29.791Z,1006.49
2016-05-28T11:17:29.857Z,1006.48
2016-05-28T11:18:29.922Z,1006.46
2016-05-28T11:19:29.955Z,1006.45
2016-05-28T11:20:30.005Z,1006.43
2016-05-28T11:21:30.071Z,1006.44
2016-05-28T11:22:30.105Z,1006.41
2016-05-28T11:23:30.168Z,1006.43
2016-05-28T11:24:30.218Z,1006.42
2016-05-28T11:25:30.268Z,1006.46
2016-05-28T11:26:30.334Z,1006.44
2016-05-28T11:27:30.383Z,1006.46
2016-05-28T11:28:30.432Z,1006.46
2016-05-28T11:29:30.482Z,1006.43
2016-05-28T11:30:30.532Z,1006.41
2016-05-28T11:31:30.581Z,1006.41
2016-05-28T11:32:30.647Z,1006.43
2016-05-28T11:33:30.696Z,1006.43
2016-05-28T11:34:30.746Z,1006.41
2016-05-28T11:35:30.998Z,1006.39
2016-05-28T11:36:30.844Z,1006.41
2016-05-28T11:37:30.910Z,1006.41
2016-05-28T11:38:30.959Z,1006.33
2016-05-28T11:39:31.009Z,1006.32
2016-05-28T11:40:31.074Z,1006.34
2016-05-28T11:41:31.125Z,1006.35
2016-05-28T11:42:31.174Z,1006.3
2016-05-28T11:43:31.222Z,1006.29
2016-05-28T11:44:31.272Z,1006.27
2016-05-28T11:45:31.322Z,1006.29
2016-05-28T11:46:31.388Z,1006.31
2016-05-28T11:47:32.609Z,1006.28
2016-05-28T11:48:31.486Z,1006.27
2016-05-28T11:49:32.582Z,1006.21
2016-05-28T11:50:31.602Z,1006.18
2016-05-28T11:51:31.651Z,1006.22
2016-05-28T11:52:31.701Z,1006.15
2016-05-28T11:53:31.749Z,1006.15
2016-05-28T11:54:31.815Z,1006.13
2016-05-28T11:55:31.849Z,1006.1
2016-05-28T11:56:31.915Z,1006.1
2016-05-28T11:57:31.964Z,1006.09
2016-05-28T11:58:32.013Z,1006.06
2016-05-28T11:59:32.062Z,1006.06
2016-05-28T12:00:32.129Z,1006.06
2016-05-28T12:01:32.178Z,1006.06
2016-05-28T12:02:32.228Z,1006.05
2016-05-28T12:03:32.276Z,1006.07
2016-05-28T12:04:33.093Z,1006.05
2016-05-28T12:05:32.392Z,1006.05
2016-05-28T12:06:32.441Z,1006.09
2016-05-28T12:07:33.367Z,1006.05
2016-05-28T12:08:32.539Z,1006.03
2016-05-28T12:09:32.606Z,1006.06